sensor_id;sensor_type;location;lat;lon;timestamp;temperature;humidity
36690;DHT22;22676;51.120;3.702;2023-07-20T00:01:03;26.50;46.70
36690;DHT22;22676;51.120;3.702;2023-07-20T00:03:29;26.40;46.60
36690;DHT22;22676;51.120;3.702;2023-07-20T00:05:55;26.50;46.70
36690;DHT22;22676;51.120;3.702;2023-07-20T00:08:20;26.50;46.60
36690;DHT22;22676;51.120;3.702;2023-07-20T00:10:46;26.50;46.60
36690;DHT22;22676;51.120;3.702;2023-07-20T00:13:12;26.50;46.60
36690;DHT22;22676;51.120;3.702;2023-07-20T00:15:37;26.50;46.50
36690;DHT22;22676;51.120;3.702;2023-07-20T00:18:06;26.60;46.60
36690;DHT22;22676;51.120;3.702;2023-07-20T00:20:32;26.50;46.50
36690;DHT22;22676;51.120;3.702;2023-07-20T00:22:58;26.50;46.40
36690;DHT22;22676;51.120;3.702;2023-07-20T00:25:27;26.50;46.50
36690;DHT22;22676;51.120;3.702;2023-07-20T00:27:52;26.50;46.50
36690;DHT22;22676;51.120;3.702;2023-07-20T00:30:18;26.40;46.60
36690;DHT22;22676;51.120;3.702;2023-07-20T00:32:44;26.40;46.70
36690;DHT22;22676;51.120;3.702;2023-07-20T00:35:10;26.40;46.70
36690;DHT22;22676;51.120;3.702;2023-07-20T00:37:37;26.30;46.80
36690;DHT22;22676;51.120;3.702;2023-07-20T00:40:03;26.20;46.90
36690;DHT22;22676;51.120;3.702;2023-07-20T00:42:30;26.20;47.10
36690;DHT22;22676;51.120;3.702;2023-07-20T00:44:55;26.10;47.20
36690;DHT22;22676;51.120;3.702;2023-07-20T00:47:21;26.00;47.30
36690;DHT22;22676;51.120;3.702;2023-07-20T00:49:47;25.90;47.40
36690;DHT22;22676;51.120;3.702;2023-07-20T00:52:14;25.80;47.60
36690;DHT22;22676;51.120;3.702;2023-07-20T00:54:41;25.80;47.80
36690;DHT22;22676;51.120;3.702;2023-07-20T00:57:07;25.70;47.90
36690;DHT22;22676;51.120;3.702;2023-07-20T00:59:34;25.70;48.00
36690;DHT22;22676;51.120;3.702;2023-07-20T01:02:00;25.60;48.10
36690;DHT22;22676;51.120;3.702;2023-07-20T01:04:26;25.50;48.20
36690;DHT22;22676;51.120;3.702;2023-07-20T01:07:03;25.50;48.40
36690;DHT22;22676;51.120;3.702;2023-07-20T01:09:55;25.40;48.40
36690;DHT22;22676;51.120;3.702;2023-07-20T01:12:46;25.40;48.60
36690;DHT22;22676;51.120;3.702;2023-07-20T01:15:11;25.30;48.70
36690;DHT22;22676;51.120;3.702;2023-07-20T01:17:37;25.30;48.80
36690;DHT22;22676;51.120;3.702;2023-07-20T01:20:03;25.20;48.80
36690;DHT22;22676;51.120;3.702;2023-07-20T01:33:02;25.10;49.10
36690;DHT22;22676;51.120;3.702;2023-07-20T01:35:30;25.10;49.10
36690;DHT22;22676;51.120;3.702;2023-07-20T01:37:56;25.10;49.10
36690;DHT22;22676;51.120;3.702;2023-07-20T01:40:24;25.10;49.20
36690;DHT22;22676;51.120;3.702;2023-07-20T01:42:51;25.10;49.20
36690;DHT22;22676;51.120;3.702;2023-07-20T01:45:17;25.00;49.10
36690;DHT22;22676;51.120;3.702;2023-07-20T01:47:43;25.00;49.70
36690;DHT22;22676;51.120;3.702;2023-07-20T01:50:09;25.00;49.20
36690;DHT22;22676;51.120;3.702;2023-07-20T01:52:35;25.00;49.30
36690;DHT22;22676;51.120;3.702;2023-07-20T01:55:01;25.00;49.30
36690;DHT22;22676;51.120;3.702;2023-07-20T01:57:26;25.00;49.30
36690;DHT22;22676;51.120;3.702;2023-07-20T01:59:52;25.00;49.30
36690;DHT22;22676;51.120;3.702;2023-07-20T02:02:18;25.00;49.30
36690;DHT22;22676;51.120;3.702;2023-07-20T02:04:44;25.00;49.40
36690;DHT22;22676;51.120;3.702;2023-07-20T02:07:09;24.90;49.30
36690;DHT22;22676;51.120;3.702;2023-07-20T02:09:35;24.90;49.40
36690;DHT22;22676;51.120;3.702;2023-07-20T02:12:00;24.90;49.40
36690;DHT22;22676;51.120;3.702;2023-07-20T02:14:26;24.90;49.40
36690;DHT22;22676;51.120;3.702;2023-07-20T02:16:52;24.90;49.50
36690;DHT22;22676;51.120;3.702;2023-07-20T02:19:21;24.90;49.50
36690;DHT22;22676;51.120;3.702;2023-07-20T02:21:46;24.80;49.50
36690;DHT22;22676;51.120;3.702;2023-07-20T02:24:13;24.80;49.50
36690;DHT22;22676;51.120;3.702;2023-07-20T02:26:38;24.80;49.50
36690;DHT22;22676;51.120;3.702;2023-07-20T02:29:04;24.80;49.50
36690;DHT22;22676;51.120;3.702;2023-07-20T02:31:33;24.80;49.60
36690;DHT22;22676;51.120;3.702;2023-07-20T02:33:59;24.80;49.60
36690;DHT22;22676;51.120;3.702;2023-07-20T02:36:24;24.80;49.60
36690;DHT22;22676;51.120;3.702;2023-07-20T02:38:50;24.80;49.60
36690;DHT22;22676;51.120;3.702;2023-07-20T02:41:16;24.70;49.50
36690;DHT22;22676;51.120;3.702;2023-07-20T02:43:41;24.70;49.60
36690;DHT22;22676;51.120;3.702;2023-07-20T02:46:07;24.70;49.60
36690;DHT22;22676;51.120;3.702;2023-07-20T02:48:33;24.70;49.60
36690;DHT22;22676;51.120;3.702;2023-07-20T02:50:58;24.70;49.60
36690;DHT22;22676;51.120;3.702;2023-07-20T02:53:24;24.70;49.60
36690;DHT22;22676;51.120;3.702;2023-07-20T02:55:50;24.70;49.70
36690;DHT22;22676;51.120;3.702;2023-07-20T02:58:15;24.70;49.70
36690;DHT22;22676;51.120;3.702;2023-07-20T03:00:42;24.70;49.70
36690;DHT22;22676;51.120;3.702;2023-07-20T03:03:08;24.70;49.70
36690;DHT22;22676;51.120;3.702;2023-07-20T03:05:35;24.70;49.70
36690;DHT22;22676;51.120;3.702;2023-07-20T03:08:03;24.70;49.70
36690;DHT22;22676;51.120;3.702;2023-07-20T03:10:31;24.70;49.70
36690;DHT22;22676;51.120;3.702;2023-07-20T03:12:57;24.70;49.70
36690;DHT22;22676;51.120;3.702;2023-07-20T03:15:23;24.70;49.80
36690;DHT22;22676;51.120;3.702;2023-07-20T03:17:48;24.70;49.80
36690;DHT22;22676;51.120;3.702;2023-07-20T03:20:14;24.60;49.70
36690;DHT22;22676;51.120;3.702;2023-07-20T03:22:40;24.70;49.80
36690;DHT22;22676;51.120;3.702;2023-07-20T03:25:05;24.60;49.70
36690;DHT22;22676;51.120;3.702;2023-07-20T03:27:31;24.60;49.70
36690;DHT22;22676;51.120;3.702;2023-07-20T03:29:57;24.60;49.70
36690;DHT22;22676;51.120;3.702;2023-07-20T03:32:22;24.60;49.70
36690;DHT22;22676;51.120;3.702;2023-07-20T03:34:48;24.60;49.70
36690;DHT22;22676;51.120;3.702;2023-07-20T03:37:14;24.60;49.80
36690;DHT22;22676;51.120;3.702;2023-07-20T03:39:39;24.60;49.80
36690;DHT22;22676;51.120;3.702;2023-07-20T03:42:05;24.60;49.80
36690;DHT22;22676;51.120;3.702;2023-07-20T03:44:32;24.60;49.80
36690;DHT22;22676;51.120;3.702;2023-07-20T03:46:57;24.60;49.80
36690;DHT22;22676;51.120;3.702;2023-07-20T03:49:23;24.60;49.80
36690;DHT22;22676;51.120;3.702;2023-07-20T03:51:48;24.60;49.80
36690;DHT22;22676;51.120;3.702;2023-07-20T03:54:14;24.50;49.80
36690;DHT22;22676;51.120;3.702;2023-07-20T03:56:40;24.50;49.80
36690;DHT22;22676;51.120;3.702;2023-07-20T03:59:05;24.50;49.80
36690;DHT22;22676;51.120;3.702;2023-07-20T04:01:31;24.50;49.80
36690;DHT22;22676;51.120;3.702;2023-07-20T04:04:04;24.60;49.80
36690;DHT22;22676;51.120;3.702;2023-07-20T04:06:30;24.50;49.80
36690;DHT22;22676;51.120;3.702;2023-07-20T04:08:56;24.50;49.80
36690;DHT22;22676;51.120;3.702;2023-07-20T04:11:21;24.50;49.80
36690;DHT22;22676;51.120;3.702;2023-07-20T04:13:47;24.50;49.80
36690;DHT22;22676;51.120;3.702;2023-07-20T04:16:13;24.50;49.80
36690;DHT22;22676;51.120;3.702;2023-07-20T04:18:38;24.50;50.10
36690;DHT22;22676;51.120;3.702;2023-07-20T04:21:04;24.50;50.60
36690;DHT22;22676;51.120;3.702;2023-07-20T04:23:29;24.50;51.40
36690;DHT22;22676;51.120;3.702;2023-07-20T04:25:55;24.40;51.00
36690;DHT22;22676;51.120;3.702;2023-07-20T04:28:21;24.30;51.20
36690;DHT22;22676;51.120;3.702;2023-07-20T04:30:49;24.30;51.40
36690;DHT22;22676;51.120;3.702;2023-07-20T04:33:15;24.20;51.60
36690;DHT22;22676;51.120;3.702;2023-07-20T04:38:11;24.20;51.90
36690;DHT22;22676;51.120;3.702;2023-07-20T04:40:36;24.20;52.10
36690;DHT22;22676;51.120;3.702;2023-07-20T04:43:02;24.20;52.20
36690;DHT22;22676;51.120;3.702;2023-07-20T04:45:28;24.20;52.20
36690;DHT22;22676;51.120;3.702;2023-07-20T04:47:53;24.10;52.30
36690;DHT22;22676;51.120;3.702;2023-07-20T04:50:19;24.10;52.30
36690;DHT22;22676;51.120;3.702;2023-07-20T04:52:45;24.20;52.30
36690;DHT22;22676;51.120;3.702;2023-07-20T04:55:11;24.10;52.40
36690;DHT22;22676;51.120;3.702;2023-07-20T04:57:37;24.10;52.50
36690;DHT22;22676;51.120;3.702;2023-07-20T05:00:03;24.10;52.60
36690;DHT22;22676;51.120;3.702;2023-07-20T05:02:29;24.00;52.70
36690;DHT22;22676;51.120;3.702;2023-07-20T05:04:54;24.00;52.90
36690;DHT22;22676;51.120;3.702;2023-07-20T05:07:20;23.90;53.10
36690;DHT22;22676;51.120;3.702;2023-07-20T05:09:46;23.90;53.20
36690;DHT22;22676;51.120;3.702;2023-07-20T05:12:11;23.80;53.40
36690;DHT22;22676;51.120;3.702;2023-07-20T05:14:38;23.80;53.60
36690;DHT22;22676;51.120;3.702;2023-07-20T05:17:04;23.80;53.60
36690;DHT22;22676;51.120;3.702;2023-07-20T05:19:29;23.80;53.70
36690;DHT22;22676;51.120;3.702;2023-07-20T05:21:55;23.80;53.70
36690;DHT22;22676;51.120;3.702;2023-07-20T05:24:21;23.70;53.80
36690;DHT22;22676;51.120;3.702;2023-07-20T05:26:47;23.70;53.90
36690;DHT22;22676;51.120;3.702;2023-07-20T05:29:13;23.80;54.00
36690;DHT22;22676;51.120;3.702;2023-07-20T05:31:39;23.70;54.10
36690;DHT22;22676;51.120;3.702;2023-07-20T05:34:04;23.70;54.10
36690;DHT22;22676;51.120;3.702;2023-07-20T05:36:30;23.70;54.20
36690;DHT22;22676;51.120;3.702;2023-07-20T05:38:56;23.70;54.30
36690;DHT22;22676;51.120;3.702;2023-07-20T05:41:22;23.80;54.40
36690;DHT22;22676;51.120;3.702;2023-07-20T05:43:48;23.70;54.50
36690;DHT22;22676;51.120;3.702;2023-07-20T05:46:13;23.70;54.60
36690;DHT22;22676;51.120;3.702;2023-07-20T05:48:39;23.80;54.70
36690;DHT22;22676;51.120;3.702;2023-07-20T05:51:05;23.70;55.00
36690;DHT22;22676;51.120;3.702;2023-07-20T05:53:31;23.70;55.20
36690;DHT22;22676;51.120;3.702;2023-07-20T05:55:56;23.80;55.10
36690;DHT22;22676;51.120;3.702;2023-07-20T05:58:22;23.90;54.70
36690;DHT22;22676;51.120;3.702;2023-07-20T06:00:49;24.10;54.40
36690;DHT22;22676;51.120;3.702;2023-07-20T06:03:15;24.10;54.30
36690;DHT22;22676;51.120;3.702;2023-07-20T06:05:42;24.10;54.20
36690;DHT22;22676;51.120;3.702;2023-07-20T06:08:08;24.10;54.00
36690;DHT22;22676;51.120;3.702;2023-07-20T06:10:34;24.20;53.80
36690;DHT22;22676;51.120;3.702;2023-07-20T06:12:59;24.30;53.80
36690;DHT22;22676;51.120;3.702;2023-07-20T06:15:27;24.20;53.90
36690;DHT22;22676;51.120;3.702;2023-07-20T06:17:54;24.20;53.90
36690;DHT22;22676;51.120;3.702;2023-07-20T06:20:21;24.20;53.80
36690;DHT22;22676;51.120;3.702;2023-07-20T06:22:46;24.20;53.80
36690;DHT22;22676;51.120;3.702;2023-07-20T06:25:12;24.20;53.60
36690;DHT22;22676;51.120;3.702;2023-07-20T06:27:38;24.30;53.50
36690;DHT22;22676;51.120;3.702;2023-07-20T06:30:04;24.20;53.30
36690;DHT22;22676;51.120;3.702;2023-07-20T06:32:30;24.30;53.30
36690;DHT22;22676;51.120;3.702;2023-07-20T06:34:55;24.30;53.40
36690;DHT22;22676;51.120;3.702;2023-07-20T06:37:21;24.30;53.10
36690;DHT22;22676;51.120;3.702;2023-07-20T06:39:47;24.30;53.00
36690;DHT22;22676;51.120;3.702;2023-07-20T06:42:12;24.20;53.70
36690;DHT22;22676;51.120;3.702;2023-07-20T06:44:39;24.30;53.10
36690;DHT22;22676;51.120;3.702;2023-07-20T06:47:04;24.20;53.30
36690;DHT22;22676;51.120;3.702;2023-07-20T06:49:30;24.30;53.20
36690;DHT22;22676;51.120;3.702;2023-07-20T06:51:56;24.20;52.90
36690;DHT22;22676;51.120;3.702;2023-07-20T06:54:22;24.30;52.70
36690;DHT22;22676;51.120;3.702;2023-07-20T06:56:47;24.30;52.50
36690;DHT22;22676;51.120;3.702;2023-07-20T06:59:13;24.30;53.10
36690;DHT22;22676;51.120;3.702;2023-07-20T07:01:39;24.30;52.20
36690;DHT22;22676;51.120;3.702;2023-07-20T07:04:04;24.30;52.40
36690;DHT22;22676;51.120;3.702;2023-07-20T07:06:31;24.30;52.40
36690;DHT22;22676;51.120;3.702;2023-07-20T07:08:56;24.30;52.20
36690;DHT22;22676;51.120;3.702;2023-07-20T07:11:22;24.30;52.10
36690;DHT22;22676;51.120;3.702;2023-07-20T07:13:48;24.20;51.80
36690;DHT22;22676;51.120;3.702;2023-07-20T07:16:16;24.20;51.90
36690;DHT22;22676;51.120;3.702;2023-07-20T07:18:47;24.20;52.00
36690;DHT22;22676;51.120;3.702;2023-07-20T07:21:13;24.10;52.10
36690;DHT22;22676;51.120;3.702;2023-07-20T07:23:39;24.10;51.90
36690;DHT22;22676;51.120;3.702;2023-07-20T07:26:05;24.20;51.90
36690;DHT22;22676;51.120;3.702;2023-07-20T07:28:31;24.20;52.00
36690;DHT22;22676;51.120;3.702;2023-07-20T07:30:57;24.20;52.00
36690;DHT22;22676;51.120;3.702;2023-07-20T07:33:24;24.20;51.50
36690;DHT22;22676;51.120;3.702;2023-07-20T07:35:50;24.20;51.40
36690;DHT22;22676;51.120;3.702;2023-07-20T07:38:17;24.00;51.80
36690;DHT22;22676;51.120;3.702;2023-07-20T07:40:42;24.00;51.70
36690;DHT22;22676;51.120;3.702;2023-07-20T07:43:08;24.10;51.40
36690;DHT22;22676;51.120;3.702;2023-07-20T07:45:35;24.20;51.20
36690;DHT22;22676;51.120;3.702;2023-07-20T07:48:03;24.20;51.00
36690;DHT22;22676;51.120;3.702;2023-07-20T07:50:29;24.20;50.60
36690;DHT22;22676;51.120;3.702;2023-07-20T07:52:55;24.10;50.50
36690;DHT22;22676;51.120;3.702;2023-07-20T07:55:21;24.10;50.70
36690;DHT22;22676;51.120;3.702;2023-07-20T07:57:46;24.10;50.70
36690;DHT22;22676;51.120;3.702;2023-07-20T08:00:14;24.00;50.70
36690;DHT22;22676;51.120;3.702;2023-07-20T08:02:43;24.00;50.80
36690;DHT22;22676;51.120;3.702;2023-07-20T08:05:09;23.80;50.90
36690;DHT22;22676;51.120;3.702;2023-07-20T08:07:38;23.80;51.10
36690;DHT22;22676;51.120;3.702;2023-07-20T08:10:04;23.90;51.10
36690;DHT22;22676;51.120;3.702;2023-07-20T08:12:30;23.90;51.10
36690;DHT22;22676;51.120;3.702;2023-07-20T08:14:56;23.90;51.20
36690;DHT22;22676;51.120;3.702;2023-07-20T08:17:22;23.90;51.10
36690;DHT22;22676;51.120;3.702;2023-07-20T08:19:47;23.80;50.90
36690;DHT22;22676;51.120;3.702;2023-07-20T08:22:13;23.80;51.00
36690;DHT22;22676;51.120;3.702;2023-07-20T08:24:40;23.80;50.90
36690;DHT22;22676;51.120;3.702;2023-07-20T08:27:06;23.80;50.90
36690;DHT22;22676;51.120;3.702;2023-07-20T08:29:31;23.90;50.70
36690;DHT22;22676;51.120;3.702;2023-07-20T08:31:57;23.90;50.70
36690;DHT22;22676;51.120;3.702;2023-07-20T08:34:23;24.00;50.70
36690;DHT22;22676;51.120;3.702;2023-07-20T08:36:49;24.00;50.60
36690;DHT22;22676;51.120;3.702;2023-07-20T08:39:14;24.00;51.50
36690;DHT22;22676;51.120;3.702;2023-07-20T08:41:42;24.00;51.20
36690;DHT22;22676;51.120;3.702;2023-07-20T08:44:09;24.00;50.90
36690;DHT22;22676;51.120;3.702;2023-07-20T08:46:38;24.00;51.00
36690;DHT22;22676;51.120;3.702;2023-07-20T08:49:04;24.00;51.40
36690;DHT22;22676;51.120;3.702;2023-07-20T08:51:30;23.90;51.00
36690;DHT22;22676;51.120;3.702;2023-07-20T08:53:56;23.80;50.60
36690;DHT22;22676;51.120;3.702;2023-07-20T08:56:25;23.70;50.20
36690;DHT22;22676;51.120;3.702;2023-07-20T08:58:53;23.70;50.40
36690;DHT22;22676;51.120;3.702;2023-07-20T09:01:20;23.80;50.60
36690;DHT22;22676;51.120;3.702;2023-07-20T09:03:46;23.80;50.30
36690;DHT22;22676;51.120;3.702;2023-07-20T09:06:13;24.00;49.90
36690;DHT22;22676;51.120;3.702;2023-07-20T09:08:42;24.00;49.80
36690;DHT22;22676;51.120;3.702;2023-07-20T09:11:11;23.90;49.70
36690;DHT22;22676;51.120;3.702;2023-07-20T09:13:39;24.00;49.70
36690;DHT22;22676;51.120;3.702;2023-07-20T09:16:04;24.00;49.90
36690;DHT22;22676;51.120;3.702;2023-07-20T09:18:33;24.10;49.80
36690;DHT22;22676;51.120;3.702;2023-07-20T09:21:02;24.00;50.10
36690;DHT22;22676;51.120;3.702;2023-07-20T09:23:33;24.00;50.90
36690;DHT22;22676;51.120;3.702;2023-07-20T09:26:00;23.90;52.00
36690;DHT22;22676;51.120;3.702;2023-07-20T09:28:26;24.00;51.90
36690;DHT22;22676;51.120;3.702;2023-07-20T09:30:54;24.00;52.20
36690;DHT22;22676;51.120;3.702;2023-07-20T09:33:24;24.00;52.00
36690;DHT22;22676;51.120;3.702;2023-07-20T09:35:50;24.00;51.90
36690;DHT22;22676;51.120;3.702;2023-07-20T09:38:15;24.00;51.70
36690;DHT22;22676;51.120;3.702;2023-07-20T09:40:42;24.00;51.80
36690;DHT22;22676;51.120;3.702;2023-07-20T09:43:08;24.10;51.60
36690;DHT22;22676;51.120;3.702;2023-07-20T09:45:38;24.20;51.30
36690;DHT22;22676;51.120;3.702;2023-07-20T09:48:05;24.20;51.00
36690;DHT22;22676;51.120;3.702;2023-07-20T09:50:41;24.20;50.90
36690;DHT22;22676;51.120;3.702;2023-07-20T09:53:11;24.20;50.60
36690;DHT22;22676;51.120;3.702;2023-07-20T09:55:39;24.30;50.60
36690;DHT22;22676;51.120;3.702;2023-07-20T09:58:05;24.30;50.20
36690;DHT22;22676;51.120;3.702;2023-07-20T10:00:33;24.30;49.80
36690;DHT22;22676;51.120;3.702;2023-07-20T10:03:03;24.40;50.00
36690;DHT22;22676;51.120;3.702;2023-07-20T10:05:33;24.40;50.10
36690;DHT22;22676;51.120;3.702;2023-07-20T10:08:02;24.40;50.00
36690;DHT22;22676;51.120;3.702;2023-07-20T10:10:29;24.40;50.00
36690;DHT22;22676;51.120;3.702;2023-07-20T10:12:57;24.40;50.20
36690;DHT22;22676;51.120;3.702;2023-07-20T10:15:33;24.40;49.90
36690;DHT22;22676;51.120;3.702;2023-07-20T10:18:22;24.50;49.80
36690;DHT22;22676;51.120;3.702;2023-07-20T10:20:51;24.50;50.10
36690;DHT22;22676;51.120;3.702;2023-07-20T10:23:18;24.50;50.10
36690;DHT22;22676;51.120;3.702;2023-07-20T10:25:45;24.60;50.10
36690;DHT22;22676;51.120;3.702;2023-07-20T10:28:11;24.60;49.20
36690;DHT22;22676;51.120;3.702;2023-07-20T10:30:38;24.70;48.00
36690;DHT22;22676;51.120;3.702;2023-07-20T10:33:05;24.70;47.40
36690;DHT22;22676;51.120;3.702;2023-07-20T10:35:31;24.50;47.10
36690;DHT22;22676;51.120;3.702;2023-07-20T10:38:15;24.70;47.20
36690;DHT22;22676;51.120;3.702;2023-07-20T10:40:41;24.70;47.90
36690;DHT22;22676;51.120;3.702;2023-07-20T10:43:09;24.70;47.20
36690;DHT22;22676;51.120;3.702;2023-07-20T10:45:53;24.70;47.30
36690;DHT22;22676;51.120;3.702;2023-07-20T10:48:23;24.70;47.30
36690;DHT22;22676;51.120;3.702;2023-07-20T10:51:21;24.70;47.50
36690;DHT22;22676;51.120;3.702;2023-07-20T10:53:48;24.60;47.80
36690;DHT22;22676;51.120;3.702;2023-07-20T10:56:19;24.60;47.80
36690;DHT22;22676;51.120;3.702;2023-07-20T10:58:45;24.50;48.20
36690;DHT22;22676;51.120;3.702;2023-07-20T11:01:16;24.50;48.20
36690;DHT22;22676;51.120;3.702;2023-07-20T11:03:43;24.50;47.80
36690;DHT22;22676;51.120;3.702;2023-07-20T11:11:30;24.60;47.70
36690;DHT22;22676;51.120;3.702;2023-07-20T11:16:40;24.70;47.90
36690;DHT22;22676;51.120;3.702;2023-07-20T11:19:13;24.80;47.40
36690;DHT22;22676;51.120;3.702;2023-07-20T11:21:42;24.70;47.10
36690;DHT22;22676;51.120;3.702;2023-07-20T11:24:08;24.70;47.00
36690;DHT22;22676;51.120;3.702;2023-07-20T11:26:45;24.80;47.00
36690;DHT22;22676;51.120;3.702;2023-07-20T11:29:12;24.70;47.10
36690;DHT22;22676;51.120;3.702;2023-07-20T11:31:39;24.80;47.10
36690;DHT22;22676;51.120;3.702;2023-07-20T11:34:06;24.70;47.10
36690;DHT22;22676;51.120;3.702;2023-07-20T11:36:32;24.60;47.50
36690;DHT22;22676;51.120;3.702;2023-07-20T11:38:59;24.60;47.40
36690;DHT22;22676;51.120;3.702;2023-07-20T11:41:25;24.70;47.60
36690;DHT22;22676;51.120;3.702;2023-07-20T11:43:52;24.70;47.40
36690;DHT22;22676;51.120;3.702;2023-07-20T11:46:19;24.80;47.20
36690;DHT22;22676;51.120;3.702;2023-07-20T11:48:45;24.80;47.10
36690;DHT22;22676;51.120;3.702;2023-07-20T11:51:17;24.80;47.20
36690;DHT22;22676;51.120;3.702;2023-07-20T11:53:44;24.70;47.30
36690;DHT22;22676;51.120;3.702;2023-07-20T11:56:12;24.80;47.00
36690;DHT22;22676;51.120;3.702;2023-07-20T11:58:43;24.70;47.20
36690;DHT22;22676;51.120;3.702;2023-07-20T12:01:09;24.80;47.40
36690;DHT22;22676;51.120;3.702;2023-07-20T12:03:36;24.70;48.10
36690;DHT22;22676;51.120;3.702;2023-07-20T12:06:09;24.70;47.60
36690;DHT22;22676;51.120;3.702;2023-07-20T12:08:34;24.80;47.50
36690;DHT22;22676;51.120;3.702;2023-07-20T12:11:00;24.80;47.40
36690;DHT22;22676;51.120;3.702;2023-07-20T12:13:40;24.80;47.50
36690;DHT22;22676;51.120;3.702;2023-07-20T12:16:16;24.80;47.40
36690;DHT22;22676;51.120;3.702;2023-07-20T12:18:45;24.80;47.50
36690;DHT22;22676;51.120;3.702;2023-07-20T12:21:11;24.80;47.70
36690;DHT22;22676;51.120;3.702;2023-07-20T12:23:38;24.80;47.60
36690;DHT22;22676;51.120;3.702;2023-07-20T12:26:08;24.80;47.40
36690;DHT22;22676;51.120;3.702;2023-07-20T12:28:41;24.90;47.30
36690;DHT22;22676;51.120;3.702;2023-07-20T12:31:08;24.80;47.20
36690;DHT22;22676;51.120;3.702;2023-07-20T12:33:33;24.90;47.20
36690;DHT22;22676;51.120;3.702;2023-07-20T12:36:00;24.90;47.30
36690;DHT22;22676;51.120;3.702;2023-07-20T12:38:27;24.90;47.40
36690;DHT22;22676;51.120;3.702;2023-07-20T12:40:54;24.90;47.40
36690;DHT22;22676;51.120;3.702;2023-07-20T12:43:22;24.90;47.50
36690;DHT22;22676;51.120;3.702;2023-07-20T12:45:48;25.00;47.20
36690;DHT22;22676;51.120;3.702;2023-07-20T12:48:14;25.00;47.40
36690;DHT22;22676;51.120;3.702;2023-07-20T12:50:40;25.00;47.50
36690;DHT22;22676;51.120;3.702;2023-07-20T12:53:05;25.00;47.30
36690;DHT22;22676;51.120;3.702;2023-07-20T12:55:32;25.00;47.30
36690;DHT22;22676;51.120;3.702;2023-07-20T12:57:57;25.00;47.30
36690;DHT22;22676;51.120;3.702;2023-07-20T13:00:23;25.00;47.20
36690;DHT22;22676;51.120;3.702;2023-07-20T13:02:49;25.00;47.10
36690;DHT22;22676;51.120;3.702;2023-07-20T13:05:15;25.00;47.10
36690;DHT22;22676;51.120;3.702;2023-07-20T13:07:42;25.00;47.10
36690;DHT22;22676;51.120;3.702;2023-07-20T13:10:09;25.00;47.00
36690;DHT22;22676;51.120;3.702;2023-07-20T13:12:35;25.10;47.00
36690;DHT22;22676;51.120;3.702;2023-07-20T13:15:03;25.10;46.80
36690;DHT22;22676;51.120;3.702;2023-07-20T13:17:34;25.20;46.70
36690;DHT22;22676;51.120;3.702;2023-07-20T13:20:00;25.30;46.20
36690;DHT22;22676;51.120;3.702;2023-07-20T13:22:26;25.20;46.30
36690;DHT22;22676;51.120;3.702;2023-07-20T13:24:52;25.20;46.50
36690;DHT22;22676;51.120;3.702;2023-07-20T13:27:18;25.20;46.60
36690;DHT22;22676;51.120;3.702;2023-07-20T13:29:44;25.30;46.50
36690;DHT22;22676;51.120;3.702;2023-07-20T13:32:13;25.30;46.80
36690;DHT22;22676;51.120;3.702;2023-07-20T13:34:40;25.30;46.50
36690;DHT22;22676;51.120;3.702;2023-07-20T13:37:06;25.30;46.60
36690;DHT22;22676;51.120;3.702;2023-07-20T13:39:32;25.40;46.80
36690;DHT22;22676;51.120;3.702;2023-07-20T13:41:58;25.70;46.10
36690;DHT22;22676;51.120;3.702;2023-07-20T13:44:23;25.80;46.10
36690;DHT22;22676;51.120;3.702;2023-07-20T13:46:49;25.80;46.20
36690;DHT22;22676;51.120;3.702;2023-07-20T13:49:15;25.70;46.60
36690;DHT22;22676;51.120;3.702;2023-07-20T13:51:44;25.50;47.10
36690;DHT22;22676;51.120;3.702;2023-07-20T13:54:09;25.40;47.60
36690;DHT22;22676;51.120;3.702;2023-07-20T13:56:35;25.30;48.20
36690;DHT22;22676;51.120;3.702;2023-07-20T13:59:01;25.00;48.90
36690;DHT22;22676;51.120;3.702;2023-07-20T14:01:27;24.90;50.10
36690;DHT22;22676;51.120;3.702;2023-07-20T14:03:55;24.80;50.00
36690;DHT22;22676;51.120;3.702;2023-07-20T14:06:21;24.70;50.60
36690;DHT22;22676;51.120;3.702;2023-07-20T14:08:46;24.60;51.10
36690;DHT22;22676;51.120;3.702;2023-07-20T14:11:14;24.50;51.60
36690;DHT22;22676;51.120;3.702;2023-07-20T14:13:39;24.50;52.10
36690;DHT22;22676;51.120;3.702;2023-07-20T14:16:05;24.40;52.30
36690;DHT22;22676;51.120;3.702;2023-07-20T14:18:31;24.50;52.70
36690;DHT22;22676;51.120;3.702;2023-07-20T14:20:57;24.50;53.10
36690;DHT22;22676;51.120;3.702;2023-07-20T14:23:23;24.40;53.30
36690;DHT22;22676;51.120;3.702;2023-07-20T14:25:48;24.40;53.80
36690;DHT22;22676;51.120;3.702;2023-07-20T14:28:14;24.40;53.80
36690;DHT22;22676;51.120;3.702;2023-07-20T14:30:40;24.30;53.90
36690;DHT22;22676;51.120;3.702;2023-07-20T14:33:06;24.30;54.40
36690;DHT22;22676;51.120;3.702;2023-07-20T14:35:32;24.30;54.50
36690;DHT22;22676;51.120;3.702;2023-07-20T14:37:58;24.30;54.50
36690;DHT22;22676;51.120;3.702;2023-07-20T14:40:23;24.30;54.40
36690;DHT22;22676;51.120;3.702;2023-07-20T14:42:49;24.40;54.60
36690;DHT22;22676;51.120;3.702;2023-07-20T14:45:15;24.40;54.30
36690;DHT22;22676;51.120;3.702;2023-07-20T14:47:40;24.40;54.30
36690;DHT22;22676;51.120;3.702;2023-07-20T14:50:07;24.40;54.30
36690;DHT22;22676;51.120;3.702;2023-07-20T14:52:32;24.40;54.40
36690;DHT22;22676;51.120;3.702;2023-07-20T14:54:58;24.40;54.50
36690;DHT22;22676;51.120;3.702;2023-07-20T14:57:24;24.40;54.50
36690;DHT22;22676;51.120;3.702;2023-07-20T14:59:50;24.40;54.50
36690;DHT22;22676;51.120;3.702;2023-07-20T15:02:16;24.40;54.50
36690;DHT22;22676;51.120;3.702;2023-07-20T15:04:48;24.40;54.40
36690;DHT22;22676;51.120;3.702;2023-07-20T15:07:19;24.50;54.50
36690;DHT22;22676;51.120;3.702;2023-07-20T15:09:46;24.40;54.30
36690;DHT22;22676;51.120;3.702;2023-07-20T15:12:12;24.50;54.60
36690;DHT22;22676;51.120;3.702;2023-07-20T15:14:42;24.40;54.80
36690;DHT22;22676;51.120;3.702;2023-07-20T15:17:08;24.50;55.10
36690;DHT22;22676;51.120;3.702;2023-07-20T15:19:34;24.50;55.70
36690;DHT22;22676;51.120;3.702;2023-07-20T15:22:02;24.50;55.40
36690;DHT22;22676;51.120;3.702;2023-07-20T15:24:29;24.50;55.20
36690;DHT22;22676;51.120;3.702;2023-07-20T15:26:54;24.50;55.20
36690;DHT22;22676;51.120;3.702;2023-07-20T15:29:20;24.50;55.20
36690;DHT22;22676;51.120;3.702;2023-07-20T15:31:46;24.50;55.20
36690;DHT22;22676;51.120;3.702;2023-07-20T15:34:12;24.50;55.10
36690;DHT22;22676;51.120;3.702;2023-07-20T15:36:40;24.50;55.20
36690;DHT22;22676;51.120;3.702;2023-07-20T15:39:06;24.60;55.40
36690;DHT22;22676;51.120;3.702;2023-07-20T15:41:31;24.60;55.40
36690;DHT22;22676;51.120;3.702;2023-07-20T15:43:57;24.60;55.40
36690;DHT22;22676;51.120;3.702;2023-07-20T15:48:48;24.70;55.00
36690;DHT22;22676;51.120;3.702;2023-07-20T15:51:14;24.80;54.70